createdAt,value
2023-03-20T00:01:28.374Z,100900.88
2023-03-20T00:03:54.795Z,100900.88
2023-03-20T00:06:23.836Z,100906.03
2023-03-20T00:08:54.878Z,100913.22
2023-03-20T00:11:28.717Z,100917.16
2023-03-20T00:13:57.873Z,100907.88
2023-03-20T00:16:27.387Z,100917.63
2023-03-20T00:18:56.214Z,100912.44
2023-03-20T00:21:22.679Z,100916.44
2023-03-20T00:23:49.265Z,100903.75
2023-03-20T00:26:18.266Z,100900.53
2023-03-20T00:28:47.910Z,100894.59
2023-03-20T00:31:24.561Z,100898.47
2023-03-20T00:33:52.284Z,100896.00
2023-03-20T00:36:18.795Z,100895.41
2023-03-20T00:38:45.222Z,100891.38
2023-03-20T00:41:29.667Z,100895.25
2023-03-20T00:44:02.292Z,100890.47
2023-03-20T00:46:34.589Z,100886.31
2023-03-20T00:49:01.888Z,100899.81
2023-03-20T00:51:28.309Z,100899.03
2023-03-20T00:53:54.775Z,100900.31
2023-03-20T00:56:38.388Z,100899.50
2023-03-20T00:59:05.018Z,100896.50
2023-03-20T01:01:32.150Z,100892.53
2023-03-20T01:03:59.642Z,100896.72
2023-03-20T01:06:26.156Z,100899.44
2023-03-20T01:08:52.519Z,100899.13
2023-03-20T01:11:23.995Z,100904.41
2023-03-20T01:13:52.226Z,100911.94
2023-03-20T01:16:24.860Z,100908.25
2023-03-20T01:18:52.722Z,100913.22
2023-03-20T01:21:20.630Z,100912.41
2023-03-20T01:23:49.112Z,100915.31
2023-03-20T01:26:40.201Z,100908.88
2023-03-20T01:29:16.836Z,100912.41
2023-03-20T01:31:43.346Z,100910.50
2023-03-20T01:34:11.737Z,100912.56
2023-03-20T01:36:38.965Z,100908.72
2023-03-20T01:39:06.140Z,100901.84
2023-03-20T01:41:32.845Z,100903.47
2023-03-20T01:44:06.779Z,100900.25
2023-03-20T01:46:41.328Z,100901.19
2023-03-20T01:49:19.920Z,100911.31
2023-03-20T01:51:47.887Z,100912.25
2023-03-20T01:54:20.243Z,100917.38
2023-03-20T01:56:52.576Z,100916.06
2023-03-20T01:59:27.654Z,100913.69
2023-03-20T02:01:54.536Z,100911.28
2023-03-20T02:04:26.981Z,100912.69
2023-03-20T02:06:53.504Z,100914.78
2023-03-20T02:09:19.874Z,100918.94
2023-03-20T02:11:47.084Z,100914.44
2023-03-20T02:14:13.724Z,100918.47
2023-03-20T02:16:40.711Z,100918.25
2023-03-20T02:19:19.009Z,100920.97
2023-03-20T02:21:56.244Z,100916.50
2023-03-20T02:24:31.874Z,100916.50
2023-03-20T02:27:35.274Z,100920.63
2023-03-20T02:30:37.781Z,100915.84
2023-03-20T02:33:28.213Z,100919.56
2023-03-20T02:36:10.142Z,100921.19
2023-03-20T02:38:36.549Z,100917.50
2023-03-20T02:41:05.639Z,100926.47
2023-03-20T02:44:03.105Z,100915.59
2023-03-20T02:46:29.507Z,100917.03
2023-03-20T02:49:03.337Z,100920.41
2023-03-20T02:51:41.735Z,100913.66
2023-03-20T02:54:08.085Z,100909.84
2023-03-20T02:56:43.613Z,100911.75
2023-03-20T02:59:35.208Z,100909.84
2023-03-20T03:02:08.576Z,100921.22
2023-03-20T03:04:40.461Z,100916.09
2023-03-20T03:07:10.080Z,100914.19
2023-03-20T03:09:46.283Z,100923.16
2023-03-20T03:12:18.040Z,100914.03
2023-03-20T03:14:51.447Z,100927.47
2023-03-20T03:17:21.345Z,100931.19
2023-03-20T03:19:50.874Z,100930.06
2023-03-20T03:22:18.599Z,100931.97
2023-03-20T03:24:51.434Z,100934.69
2023-03-20T03:27:36.707Z,100943.19
2023-03-20T03:30:10.421Z,100946.06
2023-03-20T03:32:44.765Z,100949.59
2023-03-20T03:35:17.479Z,100949.59
2023-03-20T03:37:56.253Z,100949.44
2023-03-20T03:40:38.276Z,100954.56
2023-03-20T03:43:14.711Z,100952.50
2023-03-20T03:45:58.191Z,100956.19
2023-03-20T03:48:32.485Z,100958.72
2023-03-20T03:51:07.781Z,100953.44
2023-03-20T03:53:42.688Z,100962.41
2023-03-20T03:56:13.292Z,100952.50
2023-03-20T03:58:51.403Z,100962.91
2023-03-20T04:01:21.016Z,100960.19
2023-03-20T04:03:53.720Z,100961.31
2023-03-20T04:06:20.808Z,100963.06
2023-03-20T04:08:47.267Z,100966.09
2023-03-20T04:11:22.265Z,100967.53
2023-03-20T04:13:50.572Z,100959.69
2023-03-20T04:16:18.500Z,100962.38
2023-03-20T04:18:45.863Z,100976.16
2023-03-20T04:21:12.346Z,100976.16
2023-03-20T04:23:39.145Z,100970.13
2023-03-20T04:26:06.192Z,100970.91
2023-03-20T04:28:33.062Z,100969.63
2023-03-20T04:31:00.942Z,100967.72
2023-03-20T04:33:28.424Z,100965.41
2023-03-20T04:35:56.157Z,100972.19
2023-03-20T04:38:23.887Z,100970.38
2023-03-20T04:40:50.629Z,100976.31
2023-03-20T04:43:17.383Z,100963.50
2023-03-20T04:45:43.792Z,100967.94
2023-03-20T04:48:10.877Z,100965.06
2023-03-20T04:50:37.294Z,100965.66
2023-03-20T04:53:03.764Z,100965.56
2023-03-20T04:55:30.295Z,100962.97
2023-03-20T04:57:56.762Z,100962.03
2023-03-20T05:00:23.245Z,100962.66
2023-03-20T05:02:49.676Z,100971.94
2023-03-20T05:05:16.251Z,100966.13
2023-03-20T05:07:42.804Z,100978.53
2023-03-20T05:10:09.741Z,100981.78
2023-03-20T05:12:36.285Z,100984.75
2023-03-20T05:15:02.696Z,100995.31
2023-03-20T05:17:29.157Z,100994.53
2023-03-20T05:19:55.517Z,100991.31
2023-03-20T05:22:21.935Z,100991.63
2023-03-20T05:24:48.348Z,100986.03
2023-03-20T05:27:14.746Z,100986.84
2023-03-20T05:29:41.129Z,100989.22
2023-03-20T05:32:07.580Z,100988.09
2023-03-20T05:34:34.069Z,100994.34
2023-03-20T05:37:00.459Z,100995.59
2023-03-20T05:39:26.944Z,100995.59
2023-03-20T05:41:53.462Z,100996.25
2023-03-20T05:44:19.877Z,101000.41
2023-03-20T05:46:46.333Z,101004.91
2023-03-20T05:49:12.747Z,101011.19
2023-03-20T05:51:39.135Z,101012.28
2023-03-20T05:54:05.779Z,101009.72
2023-03-20T05:56:32.212Z,101017.09
2023-03-20T05:58:58.674Z,101011.97
2023-03-20T06:01:25.185Z,101023.69
2023-03-20T06:03:51.683Z,101021.56
2023-03-20T06:06:18.159Z,101020.63
2023-03-20T06:08:44.590Z,101025.75
2023-03-20T06:11:11.671Z,101020.31
2023-03-20T06:13:38.054Z,101016.28
2023-03-20T06:16:05.080Z,101017.41
2023-03-20T06:18:31.567Z,101017.81
2023-03-20T06:20:58.179Z,101015.75
2023-03-20T06:23:25.126Z,101015.78
2023-03-20T06:25:51.685Z,101010.66
2023-03-20T06:28:18.093Z,101011.94
2023-03-20T06:30:44.799Z,101015.41
2023-03-20T06:33:11.376Z,101020.06
2023-03-20T06:35:38.551Z,101030.63
2023-03-20T06:38:05.183Z,101022.16
2023-03-20T06:40:31.821Z,101022.44
2023-03-20T06:42:58.280Z,101021.81
2023-03-20T06:45:24.774Z,101025.03
2023-03-20T06:47:51.171Z,101026.59
2023-03-20T06:50:17.687Z,101029.41
2023-03-20T06:52:44.752Z,101038.03
2023-03-20T06:55:11.428Z,101027.06
2023-03-20T06:57:38.866Z,101025.91
2023-03-20T07:00:06.421Z,101027.47
2023-03-20T07:02:33.369Z,101031.00
2023-03-20T07:04:59.885Z,101029.53
2023-03-20T07:07:26.348Z,101036.13
2023-03-20T07:09:52.752Z,101032.25
2023-03-20T07:12:20.243Z,101036.44
2023-03-20T07:14:46.836Z,101038.31
2023-03-20T07:17:13.549Z,101038.88
2023-03-20T07:19:40.139Z,101037.59
2023-03-20T07:22:11.919Z,101038.25
2023-03-20T07:24:38.459Z,101045.03
2023-03-20T07:27:04.939Z,101037.31
2023-03-20T07:29:31.341Z,101040.25
2023-03-20T07:31:57.887Z,101051.00
2023-03-20T07:34:24.297Z,101058.19
2023-03-20T07:36:51.679Z,101053.31
2023-03-20T07:39:18.088Z,101062.63
2023-03-20T07:41:44.502Z,101062.31
2023-03-20T07:44:11.036Z,101060.28
2023-03-20T07:46:37.495Z,101062.53
2023-03-20T07:49:03.893Z,101061.47
2023-03-20T07:51:30.435Z,101059.16
2023-03-20T07:53:56.860Z,101052.41
2023-03-20T07:56:23.228Z,101055.09
2023-03-20T07:58:49.646Z,101055.28
2023-03-20T08:01:16.171Z,101056.75
2023-03-20T08:03:42.693Z,101059.06
2023-03-20T08:06:09.762Z,101060.50
2023-03-20T08:08:36.493Z,101063.13
2023-03-20T08:11:02.892Z,101064.28
2023-03-20T08:13:29.367Z,101062.16
2023-03-20T08:15:55.765Z,101078.03
2023-03-20T08:18:22.435Z,101062.38
2023-03-20T08:20:50.199Z,101065.56
2023-03-20T08:23:20.434Z,101060.19
2023-03-20T08:25:48.682Z,101058.63
2023-03-20T08:28:15.580Z,101057.34
2023-03-20T08:30:42.055Z,101062.50
2023-03-20T08:33:08.774Z,101057.72
2023-03-20T08:35:35.699Z,101065.72
2023-03-20T08:38:02.922Z,101053.88
2023-03-20T08:40:29.655Z,101070.09
2023-03-20T08:42:56.339Z,101077.75
2023-03-20T08:45:25.840Z,101063.53
2023-03-20T08:47:52.727Z,101087.00
2023-03-20T08:50:19.389Z,101086.91
2023-03-20T08:52:46.969Z,101084.28
2023-03-20T08:55:14.927Z,101086.66
2023-03-20T08:57:41.478Z,101083.56
2023-03-20T09:00:09.891Z,101086.47
2023-03-20T09:02:37.388Z,101093.75
2023-03-20T09:05:04.576Z,101090.22
2023-03-20T09:07:31.077Z,101085.34
2023-03-20T09:09:57.540Z,101090.47
2023-03-20T09:12:24.226Z,101086.72
2023-03-20T09:14:50.640Z,101094.88
2023-03-20T09:17:17.129Z,101098.75
2023-03-20T09:19:44.670Z,101090.69
2023-03-20T09:22:15.216Z,101097.31
2023-03-20T09:24:41.771Z,101087.72
2023-03-20T09:27:08.457Z,101099.25
2023-03-20T09:29:34.876Z,101106.69
2023-03-20T09:32:02.021Z,101108.41
2023-03-20T09:34:29.379Z,101105.75
2023-03-20T09:36:56.055Z,101111.78
2023-03-20T09:39:22.584Z,101112.47
2023-03-20T09:41:57.190Z,101119.00
2023-03-20T09:44:40.275Z,101122.91
2023-03-20T09:47:21.693Z,101117.09
2023-03-20T09:49:48.186Z,101123.72
2023-03-20T09:53:11.392Z,101129.31
2023-03-20T09:55:41.456Z,101130.69
2023-03-20T09:58:35.740Z,101128.97
2023-03-20T10:01:05.530Z,101129.09
2023-03-20T10:03:50.529Z,101133.31
2023-03-20T10:06:18.373Z,101129.41
2023-03-20T10:08:46.400Z,101131.50
2023-03-20T10:11:51.058Z,101144.16
2023-03-20T10:14:28.013Z,101144.03
2023-03-20T10:17:26.384Z,101144.84
2023-03-20T10:20:02.764Z,101154.78
2023-03-20T10:22:38.377Z,101157.75
2023-03-20T10:25:21.255Z,101153.78
2023-03-20T10:28:13.061Z,101152.97
2023-03-20T10:31:13.548Z,101154.66
2023-03-20T10:34:17.609Z,101166.75
2023-03-20T10:36:53.627Z,101164.25
2023-03-20T10:39:50.225Z,101166.97
2023-03-20T10:42:23.625Z,101163.56
2023-03-20T10:45:02.017Z,101161.66
2023-03-20T10:47:33.436Z,101164.16
2023-03-20T10:50:17.272Z,101165.25
2023-03-20T10:52:46.228Z,101165.34
2023-03-20T10:55:20.760Z,101169.25
2023-03-20T10:58:03.387Z,101172.69
2023-03-20T11:00:29.960Z,101172.69
2023-03-20T11:02:56.539Z,101172.91
2023-03-20T11:05:30.174Z,101172.25
2023-03-20T11:08:08.896Z,101173.28
2023-03-20T11:10:38.245Z,101173.31
2023-03-20T11:13:26.525Z,101167.19
2023-03-20T11:15:54.294Z,101177.16
2023-03-20T11:18:24.686Z,101181.88
2023-03-20T11:20:56.557Z,101191.34
2023-03-20T11:23:33.150Z,101192.38
2023-03-20T11:26:02.908Z,101175.19
2023-03-20T11:28:40.886Z,101180.00
2023-03-20T11:31:13.605Z,101176.00
2023-03-20T11:33:44.325Z,101180.41
2023-03-20T11:36:33.156Z,101175.59
2023-03-20T11:39:16.516Z,101177.09
2023-03-20T11:41:50.409Z,101180.28
2023-03-20T11:44:36.759Z,101181.09
2023-03-20T11:47:04.756Z,101170.31
2023-03-20T11:49:52.774Z,101184.03
2023-03-20T11:52:25.638Z,101174.78
2023-03-20T11:54:56.237Z,101172.84
2023-03-20T11:57:42.641Z,101169.91
2023-03-20T12:00:11.915Z,101169.47
2023-03-20T12:02:41.303Z,101163.84
2023-03-20T12:05:32.799Z,101156.88
2023-03-20T12:08:10.253Z,101156.91
2023-03-20T12:10:42.367Z,101153.91
2023-03-20T12:13:23.456Z,101143.50
2023-03-20T12:15:55.566Z,101140.09
2023-03-20T12:18:33.325Z,101137.16
2023-03-20T12:21:14.701Z,101137.19
2023-03-20T12:23:45.746Z,101137.53
2023-03-20T12:26:15.148Z,101143.00
2023-03-20T12:28:47.355Z,101139.75
2023-03-20T12:31:41.601Z,101146.16
2023-03-20T12:34:27.921Z,101130.19
2023-03-20T12:36:57.491Z,101138.84
2023-03-20T12:39:34.798Z,101145.59
2023-03-20T12:42:22.317Z,101137.72
2023-03-20T12:44:53.450Z,101138.97
2023-03-20T12:47:41.060Z,101132.16
2023-03-20T12:50:33.909Z,101141.53
2023-03-20T12:53:12.451Z,101132.63
2023-03-20T12:56:04.298Z,101117.44
2023-03-20T12:58:51.643Z,101120.97
2023-03-20T13:01:37.807Z,101116.19
2023-03-20T13:04:23.037Z,101119.16
2023-03-20T13:06:55.847Z,101116.53
2023-03-20T13:09:44.663Z,101119.50
2023-03-20T13:12:14.452Z,101121.06
2023-03-20T13:15:16.093Z,101115.47
2023-03-20T13:17:48.382Z,101115.03
2023-03-20T13:20:27.143Z,101117.34
2023-03-20T13:23:15.657Z,101112.19
2023-03-20T13:26:23.576Z,101119.28
2023-03-20T13:29:15.307Z,101122.34
2023-03-20T13:32:06.328Z,101116.06
2023-03-20T13:34:52.918Z,101111.50
2023-03-20T13:37:28.307Z,101119.28
2023-03-20T13:40:05.945Z,101113.59
2023-03-20T13:42:50.336Z,101116.00
2023-03-20T13:45:31.395Z,101114.94
2023-03-20T13:48:02.307Z,101110.38
2023-03-20T13:51:02.218Z,101103.84
2023-03-20T13:53:33.697Z,101093.00
2023-03-20T13:56:22.026Z,101095.75
2023-03-20T13:59:10.219Z,101097.56
2023-03-20T14:02:02.544Z,101086.94
2023-03-20T14:04:30.532Z,101081.94
2023-03-20T14:06:59.310Z,101077.91
2023-03-20T14:09:27.435Z,101091.41
2023-03-20T14:11:56.471Z,101083.75
2023-03-20T14:14:41.186Z,101092.53
2023-03-20T14:17:16.785Z,101087.16
2023-03-20T14:19:43.770Z,101076.53
2023-03-20T14:22:21.456Z,101072.88
2023-03-20T14:24:54.962Z,101069.69
2023-03-20T14:27:36.873Z,101071.16
2023-03-20T14:30:42.700Z,101076.00
2023-03-20T14:33:15.414Z,101074.72
2023-03-20T14:35:49.327Z,101079.97
2023-03-20T14:38:26.428Z,101073.69
2023-03-20T14:40:59.221Z,101080.41
2023-03-20T14:43:47.522Z,101071.28
2023-03-20T14:46:26.193Z,101078.84
2023-03-20T14:48:56.427Z,101076.34
2023-03-20T14:51:22.771Z,101061.69
2023-03-20T14:53:57.708Z,101065.81
2023-03-20T14:56:32.097Z,101072.69
2023-03-20T14:59:02.831Z,101062.50
2023-03-20T15:01:38.448Z,101065.59
2023-03-20T15:04:37.509Z,101068.56
2023-03-20T15:07:17.779Z,101064.56
2023-03-20T15:09:47.438Z,101065.13
2023-03-20T15:12:19.468Z,101063.75
2023-03-20T15:14:52.574Z,101065.00
2023-03-20T15:17:23.812Z,101064.31
2023-03-20T15:19:50.942Z,101062.59
2023-03-20T15:22:19.852Z,101065.47
2023-03-20T15:24:55.709Z,101047.97
2023-03-20T15:27:25.816Z,101058.94
2023-03-20T15:29:55.524Z,101046.50
2023-03-20T15:32:22.404Z,101051.44
2023-03-20T15:34:51.011Z,101053.69
2023-03-20T15:37:21.821Z,101053.91
2023-03-20T15:39:51.778Z,101057.59
2023-03-20T15:42:21.460Z,101063.63
2023-03-20T15:44:50.345Z,101056.09
2023-03-20T15:47:22.433Z,101054.00
2023-03-20T15:49:52.322Z,101053.03
2023-03-20T15:52:53.942Z,101055.72
2023-03-20T15:55:23.483Z,101055.72
2023-03-20T15:57:53.942Z,101067.28
2023-03-20T16:00:30.474Z,101056.19
2023-03-20T16:02:59.015Z,101060.22
2023-03-20T16:05:28.920Z,101063.25
2023-03-20T16:07:56.294Z,101062.56
2023-03-20T16:10:38.146Z,101066.19
2023-03-20T16:13:07.265Z,101063.34
2023-03-20T16:15:34.440Z,101064.06
2023-03-20T16:18:04.559Z,101063.34
2023-03-20T16:20:36.798Z,101066.75
2023-03-20T16:23:07.284Z,101066.19
2023-03-20T16:25:35.442Z,101071.25
2023-03-20T16:28:07.049Z,101075.97
2023-03-20T16:30:34.980Z,101069.34
2023-03-20T16:33:06.700Z,101078.94
2023-03-20T16:35:47.413Z,101072.97
2023-03-20T16:38:24.036Z,101070.47
2023-03-20T16:41:01.032Z,101070.34
2023-03-20T16:43:31.339Z,101072.78
2023-03-20T16:46:04.606Z,101074.69
2023-03-20T16:48:37.830Z,101068.13
2023-03-20T16:51:24.555Z,101070.41
2023-03-20T16:53:56.447Z,101063.66
2023-03-20T16:56:38.323Z,101071.06
2023-03-20T16:59:09.072Z,101069.16
2023-03-20T17:01:35.651Z,101067.88
2023-03-20T17:04:33.652Z,101075.28
2023-03-20T17:07:07.356Z,101072.88
2023-03-20T17:09:34.111Z,101077.75
2023-03-20T17:12:13.180Z,101074.81
2023-03-20T17:14:45.066Z,101071.00
2023-03-20T17:17:19.439Z,101066.81
2023-03-20T17:19:46.955Z,101069.03
2023-03-20T17:22:15.854Z,101057.28
2023-03-20T17:24:42.385Z,101072.47
2023-03-20T17:27:12.188Z,101064.53
2023-03-20T17:29:39.746Z,101063.50
2023-03-20T17:32:15.323Z,101067.22
2023-03-20T17:34:42.833Z,101060.69
2023-03-20T17:37:22.724Z,101069.81
2023-03-20T17:39:49.346Z,101070.63
2023-03-20T17:42:20.790Z,101065.75
2023-03-20T17:44:48.187Z,101059.34
2023-03-20T17:47:19.953Z,101056.81
2023-03-20T17:49:46.497Z,101052.97
2023-03-20T17:52:18.946Z,101052.22
2023-03-20T17:54:46.446Z,101055.56
2023-03-20T17:57:32.643Z,101062.34
2023-03-20T18:00:00.097Z,101058.22
2023-03-20T18:02:26.835Z,101060.56
2023-03-20T18:04:53.486Z,101064.53
2023-03-20T18:07:20.385Z,101060.56
2023-03-20T18:09:48.856Z,101056.56
2023-03-20T18:12:17.498Z,101064.28
2023-03-20T18:14:45.620Z,101076.97
2023-03-20T18:17:13.856Z,101075.22
2023-03-20T18:19:41.694Z,101074.28
2023-03-20T18:22:09.342Z,101074.19
2023-03-20T18:24:36.523Z,101081.50
2023-03-20T18:27:03.106Z,101081.50
2023-03-20T18:29:29.590Z,101075.91
2023-03-20T18:31:56.005Z,101083.63
2023-03-20T18:34:22.578Z,101074.63
2023-03-20T18:36:49.353Z,101078.03
2023-03-20T18:39:21.723Z,101080.75
2023-03-20T18:41:48.979Z,101088.91
2023-03-20T18:44:15.789Z,101083.97
2023-03-20T18:46:43.357Z,101092.59
2023-03-20T18:49:14.687Z,101083.63
2023-03-20T18:51:41.190Z,101087.91
2023-03-20T18:54:07.855Z,101077.34
2023-03-20T18:56:36.831Z,101082.00
2023-03-20T18:59:07.750Z,101084.41
2023-03-20T19:01:36.114Z,101085.75
2023-03-20T19:04:03.175Z,101086.72
2023-03-20T19:06:32.089Z,101079.69
2023-03-20T19:08:59.390Z,101072.66
2023-03-20T19:11:25.900Z,101075.72
2023-03-20T19:13:53.693Z,101069.31
2023-03-20T19:16:20.304Z,101083.66
2023-03-20T19:18:47.144Z,101085.81
2023-03-20T19:21:14.006Z,101081.91
2023-03-20T19:23:40.555Z,101083.66
2023-03-20T19:26:15.873Z,101078.31
2023-03-20T19:28:44.088Z,101078.31
2023-03-20T19:31:11.236Z,101078.16
2023-03-20T19:33:38.671Z,101081.91
2023-03-20T19:36:06.718Z,101079.91
2023-03-20T19:38:34.244Z,101083.00
2023-03-20T19:41:02.556Z,101080.56
2023-03-20T19:43:30.803Z,101072.22
2023-03-20T19:45:59.314Z,101076.56
2023-03-20T19:48:46.218Z,101082.06
2023-03-20T19:51:26.877Z,101080.16
2023-03-20T19:53:54.535Z,101078.88
2023-03-20T19:56:22.664Z,101071.00
2023-03-20T19:58:49.947Z,101083.53
2023-03-20T20:01:19.431Z,101076.13
2023-03-20T20:03:46.699Z,101080.84
2023-03-20T20:06:33.432Z,101070.69
2023-03-20T20:09:01.677Z,101066.69
2023-03-20T20:11:28.663Z,101066.38
2023-03-20T20:14:06.708Z,101067.78
2023-03-20T20:16:39.800Z,101072.00
2023-03-20T20:19:06.732Z,101073.41
2023-03-20T20:24:21.594Z,101075.53
2023-03-20T20:26:54.967Z,101077.31
2023-03-20T20:29:28.025Z,101063.00
2023-03-20T20:31:54.558Z,101061.72
2023-03-20T20:35:22.602Z,101054.38
2023-03-20T20:37:51.755Z,101035.44
2023-03-20T20:39:56.903Z,101031.44
2023-03-20T20:42:23.499Z,101035.78
2023-03-20T20:44:50.304Z,101053.25
2023-03-20T20:47:17.147Z,101050.22
2023-03-20T20:49:46.466Z,101035.94
2023-03-20T20:52:13.690Z,101034.06
2023-03-20T20:54:43.241Z,101044.78
2023-03-20T20:57:11.632Z,101055.88
2023-03-20T20:59:40.263Z,101061.78
2023-03-20T21:02:12.592Z,101059.34
2023-03-20T21:04:43.417Z,101070.75
2023-03-20T21:07:12.857Z,101066.31
2023-03-20T21:09:40.824Z,101066.16
2023-03-20T21:12:08.518Z,101065.50
2023-03-20T21:14:35.199Z,101069.34
2023-03-20T21:17:01.796Z,101072.53
2023-03-20T21:19:37.718Z,101071.75
2023-03-20T21:22:05.190Z,101075.25
2023-03-20T21:24:35.104Z,101081.19
2023-03-20T21:27:08.120Z,101070.97
2023-03-20T21:29:34.861Z,101074.34
2023-03-20T21:32:01.419Z,101080.44
2023-03-20T21:34:29.063Z,101079.63
2023-03-20T21:36:57.814Z,101078.81
2023-03-20T21:39:26.019Z,101077.06
2023-03-20T21:41:52.452Z,101082.03
2023-03-20T21:44:46.114Z,101083.34
2023-03-20T21:51:23.450Z,101071.03
2023-03-20T21:53:12.436Z,101069.66
2023-03-20T22:01:42.025Z,101061.84
2023-03-20T22:10:05.712Z,101056.63
2023-03-20T22:12:59.451Z,101070.09
2023-03-20T22:15:39.372Z,101071.34
2023-03-20T22:18:14.852Z,101069.78
2023-03-20T22:21:29.710Z,101067.03
2023-03-20T22:24:01.698Z,101062.34
2023-03-20T22:29:32.438Z,101075.50
2023-03-20T22:35:04.328Z,101075.78
2023-03-20T22:38:17.127Z,101075.97
2023-03-20T22:40:59.288Z,101081.03
2023-03-20T22:42:57.392Z,101073.03
2023-03-20T22:45:37.866Z,101073.03
2023-03-20T22:48:10.835Z,101082.03
2023-03-20T22:50:38.640Z,101078.66
2023-03-20T22:53:05.381Z,101085.56
2023-03-20T22:55:32.090Z,101084.28
2023-03-20T22:58:06.956Z,101084.63
2023-03-20T23:00:35.489Z,101082.03
2023-03-20T23:03:33.383Z,101078.31
2023-03-20T23:05:48.582Z,101082.03
2023-03-20T23:08:15.061Z,101078.66
2023-03-20T23:10:48.637Z,101079.16
2023-03-20T23:13:17.052Z,101085.25
2023-03-20T23:15:46.661Z,101080.91
2023-03-20T23:18:14.768Z,101086.84
2023-03-20T23:20:41.562Z,101080.59
2023-03-20T23:23:08.266Z,101078.06
2023-03-20T23:25:41.833Z,101076.91
2023-03-20T23:28:09.661Z,101076.13
2023-03-20T23:30:49.811Z,101071.03
2023-03-20T23:33:23.320Z,101078.22
2023-03-20T23:35:58.480Z,101072.34
2023-03-20T23:38:31.481Z,101078.84
2023-03-20T23:40:57.962Z,101076.41
2023-03-20T23:43:25.358Z,101070.19
2023-03-20T23:45:51.944Z,101072.50
2023-03-20T23:48:18.603Z,101068.47
2023-03-20T23:50:53.081Z,101065.22
2023-03-20T23:53:21.239Z,101068.63
2023-03-20T23:55:52.957Z,101069.09
2023-03-20T23:58:21.536Z,101072.81
